sensor_id;sensor_type;location;lat;lon;timestamp;pressure;altitude;pressure_sealevel;temperature;humidity
12987;BME280;58897;51.960;5.582;2023-04-06T00:00:09;101507.19;;;6.46;96.53
12987;BME280;58897;51.960;5.582;2023-04-06T00:02:37;101500.44;;;6.52;95.90
12987;BME280;58897;51.960;5.582;2023-04-06T00:05:03;101503.88;;;6.43;98.32
12987;BME280;58897;51.960;5.582;2023-04-06T00:07:30;101503.34;;;6.27;98.96
12987;BME280;58897;51.960;5.582;2023-04-06T00:09:56;101502.63;;;6.47;94.15
12987;BME280;58897;51.960;5.582;2023-04-06T00:12:23;101497.53;;;6.55;92.63
12987;BME280;58897;51.960;5.582;2023-04-06T00:14:50;101501.53;;;6.49;93.25
12987;BME280;58897;51.960;5.582;2023-04-06T00:17:17;101500.69;;;6.38;92.81
12987;BME280;58897;51.960;5.582;2023-04-06T00:19:44;101497.75;;;6.30;94.87
12987;BME280;58897;51.960;5.582;2023-04-06T00:22:10;101493.75;;;6.46;93.02
12987;BME280;58897;51.960;5.582;2023-04-06T00:24:37;101494.34;;;6.50;93.56
12987;BME280;58897;51.960;5.582;2023-04-06T00:27:03;101482.00;;;6.36;95.20
12987;BME280;58897;51.960;5.582;2023-04-06T00:29:30;101483.63;;;6.39;91.33
12987;BME280;58897;51.960;5.582;2023-04-06T00:31:56;101491.56;;;6.40;92.75
12987;BME280;58897;51.960;5.582;2023-04-06T00:34:23;101471.81;;;6.41;93.11
12987;BME280;58897;51.960;5.582;2023-04-06T00:36:50;101477.66;;;6.46;92.06
12987;BME280;58897;51.960;5.582;2023-04-06T00:39:16;101470.19;;;6.50;90.78
12987;BME280;58897;51.960;5.582;2023-04-06T00:41:50;101473.47;;;6.31;89.07
12987;BME280;58897;51.960;5.582;2023-04-06T00:44:17;101466.41;;;6.30;90.71
12987;BME280;58897;51.960;5.582;2023-04-06T00:46:44;101465.56;;;6.07;86.50
12987;BME280;58897;51.960;5.582;2023-04-06T00:49:10;101467.13;;;6.21;90.29
12987;BME280;58897;51.960;5.582;2023-04-06T00:51:37;101460.19;;;6.18;92.43
12987;BME280;58897;51.960;5.582;2023-04-06T00:54:04;101463.09;;;6.15;92.81
12987;BME280;58897;51.960;5.582;2023-04-06T00:56:31;101461.75;;;6.21;91.39
12987;BME280;58897;51.960;5.582;2023-04-06T00:58:58;101456.88;;;6.26;90.17
12987;BME280;58897;51.960;5.582;2023-04-06T01:01:25;101452.75;;;6.33;88.27
12987;BME280;58897;51.960;5.582;2023-04-06T01:03:52;101457.00;;;6.13;90.39
12987;BME280;58897;51.960;5.582;2023-04-06T01:06:19;101451.41;;;6.16;91.51
12987;BME280;58897;51.960;5.582;2023-04-06T01:08:45;101449.78;;;6.03;88.39
12987;BME280;58897;51.960;5.582;2023-04-06T01:11:12;101445.41;;;6.02;89.58
12987;BME280;58897;51.960;5.582;2023-04-06T01:13:38;101440.13;;;5.89;89.96
12987;BME280;58897;51.960;5.582;2023-04-06T01:16:05;101435.59;;;5.79;90.52
12987;BME280;58897;51.960;5.582;2023-04-06T01:18:32;101442.06;;;5.87;90.49
12987;BME280;58897;51.960;5.582;2023-04-06T01:20:58;101435.53;;;6.02;93.84
12987;BME280;58897;51.960;5.582;2023-04-06T01:23:25;101427.13;;;5.96;92.55
12987;BME280;58897;51.960;5.582;2023-04-06T01:25:52;101434.19;;;5.97;91.61
12987;BME280;58897;51.960;5.582;2023-04-06T01:28:19;101435.84;;;5.87;91.29
12987;BME280;58897;51.960;5.582;2023-04-06T01:30:45;101428.84;;;5.97;91.82
12987;BME280;58897;51.960;5.582;2023-04-06T01:33:12;101431.50;;;5.97;93.58
12987;BME280;58897;51.960;5.582;2023-04-06T01:35:39;101425.25;;;5.85;92.35
12987;BME280;58897;51.960;5.582;2023-04-06T01:38:05;101425.53;;;5.93;93.96
12987;BME280;58897;51.960;5.582;2023-04-06T01:40:32;101425.88;;;5.89;91.75
12987;BME280;58897;51.960;5.582;2023-04-06T01:42:58;101417.88;;;5.76;95.05
12987;BME280;58897;51.960;5.582;2023-04-06T01:45:25;101415.91;;;5.91;96.33
12987;BME280;58897;51.960;5.582;2023-04-06T01:47:52;101418.28;;;5.83;94.79
12987;BME280;58897;51.960;5.582;2023-04-06T01:50:18;101408.16;;;5.75;95.48
12987;BME280;58897;51.960;5.582;2023-04-06T01:52:46;101408.97;;;5.65;96.83
12987;BME280;58897;51.960;5.582;2023-04-06T01:55:12;101396.66;;;5.62;97.90
12987;BME280;58897;51.960;5.582;2023-04-06T01:57:39;101408.66;;;5.45;98.13
12987;BME280;58897;51.960;5.582;2023-04-06T02:00:06;101404.94;;;5.59;98.97
12987;BME280;58897;51.960;5.582;2023-04-06T02:02:32;101400.66;;;5.56;98.38
12987;BME280;58897;51.960;5.582;2023-04-06T02:04:59;101395.81;;;5.61;99.59
12987;BME280;58897;51.960;5.582;2023-04-06T02:07:25;101400.56;;;5.69;97.88
12987;BME280;58897;51.960;5.582;2023-04-06T02:09:54;101392.50;;;5.58;98.44
12987;BME280;58897;51.960;5.582;2023-04-06T02:12:21;101389.13;;;5.67;98.03
12987;BME280;58897;51.960;5.582;2023-04-06T02:14:48;101380.59;;;5.84;98.69
12987;BME280;58897;51.960;5.582;2023-04-06T02:17:15;101382.78;;;5.79;98.28
12987;BME280;58897;51.960;5.582;2023-04-06T02:19:41;101379.38;;;5.66;99.72
12987;BME280;58897;51.960;5.582;2023-04-06T02:22:09;101375.94;;;5.64;100.00
12987;BME280;58897;51.960;5.582;2023-04-06T02:24:36;101373.28;;;5.64;100.00
12987;BME280;58897;51.960;5.582;2023-04-06T02:27:03;101373.63;;;5.59;100.00
12987;BME280;58897;51.960;5.582;2023-04-06T02:29:29;101365.47;;;5.61;100.00
12987;BME280;58897;51.960;5.582;2023-04-06T02:31:56;101370.09;;;5.59;100.00
12987;BME280;58897;51.960;5.582;2023-04-06T02:34:23;101371.19;;;5.56;100.00
12987;BME280;58897;51.960;5.582;2023-04-06T02:36:49;101364.69;;;5.37;100.00
12987;BME280;58897;51.960;5.582;2023-04-06T02:39:16;101357.16;;;5.53;100.00
12987;BME280;58897;51.960;5.582;2023-04-06T02:41:43;101352.91;;;5.39;100.00
12987;BME280;58897;51.960;5.582;2023-04-06T02:44:09;101355.47;;;5.52;100.00
12987;BME280;58897;51.960;5.582;2023-04-06T02:46:36;101350.53;;;5.35;100.00
12987;BME280;58897;51.960;5.582;2023-04-06T02:49:03;101347.66;;;5.49;100.00
12987;BME280;58897;51.960;5.582;2023-04-06T02:51:29;101345.75;;;5.62;100.00
12987;BME280;58897;51.960;5.582;2023-04-06T02:53:56;101349.66;;;5.69;100.00
12987;BME280;58897;51.960;5.582;2023-04-06T02:56:22;101346.50;;;5.75;100.00
12987;BME280;58897;51.960;5.582;2023-04-06T02:58:49;101346.84;;;5.59;100.00
12987;BME280;58897;51.960;5.582;2023-04-06T03:01:15;101343.91;;;5.51;100.00
12987;BME280;58897;51.960;5.582;2023-04-06T03:03:42;101339.53;;;5.61;100.00
12987;BME280;58897;51.960;5.582;2023-04-06T03:06:09;101337.47;;;5.65;100.00
12987;BME280;58897;51.960;5.582;2023-04-06T03:08:35;101337.56;;;5.63;100.00
12987;BME280;58897;51.960;5.582;2023-04-06T03:11:02;101335.22;;;5.48;100.00
12987;BME280;58897;51.960;5.582;2023-04-06T03:13:28;101336.38;;;5.68;100.00
12987;BME280;58897;51.960;5.582;2023-04-06T03:15:55;101334.78;;;5.65;100.00
12987;BME280;58897;51.960;5.582;2023-04-06T03:18:23;101330.25;;;5.54;100.00
12987;BME280;58897;51.960;5.582;2023-04-06T03:20:50;101331.13;;;5.66;100.00
12987;BME280;58897;51.960;5.582;2023-04-06T03:23:19;101327.34;;;5.69;100.00
12987;BME280;58897;51.960;5.582;2023-04-06T03:25:49;101321.50;;;5.75;100.00
12987;BME280;58897;51.960;5.582;2023-04-06T03:28:15;101320.75;;;5.61;100.00
12987;BME280;58897;51.960;5.582;2023-04-06T03:30:44;101321.25;;;5.67;100.00
12987;BME280;58897;51.960;5.582;2023-04-06T03:33:11;101321.59;;;5.51;100.00
12987;BME280;58897;51.960;5.582;2023-04-06T03:35:38;101321.50;;;5.52;98.32
12987;BME280;58897;51.960;5.582;2023-04-06T03:38:04;101312.25;;;5.68;97.93
12987;BME280;58897;51.960;5.582;2023-04-06T03:40:31;101322.47;;;5.63;98.18
12987;BME280;58897;51.960;5.582;2023-04-06T03:42:58;101312.97;;;5.70;98.44
12987;BME280;58897;51.960;5.582;2023-04-06T03:45:24;101309.59;;;5.79;98.11
12987;BME280;58897;51.960;5.582;2023-04-06T03:47:51;101310.28;;;5.58;98.82
12987;BME280;58897;51.960;5.582;2023-04-06T03:50:17;101302.00;;;5.61;99.63
12987;BME280;58897;51.960;5.582;2023-04-06T03:52:45;101301.75;;;5.65;100.00
12987;BME280;58897;51.960;5.582;2023-04-06T03:55:12;101306.16;;;5.66;100.00
12987;BME280;58897;51.960;5.582;2023-04-06T03:57:38;101305.56;;;5.73;100.00
12987;BME280;58897;51.960;5.582;2023-04-06T04:00:05;101298.00;;;5.78;100.00
12987;BME280;58897;51.960;5.582;2023-04-06T04:02:32;101300.44;;;5.92;100.00
12987;BME280;58897;51.960;5.582;2023-04-06T04:04:59;101301.41;;;5.69;100.00
12987;BME280;58897;51.960;5.582;2023-04-06T04:07:25;101308.34;;;5.49;100.00
12987;BME280;58897;51.960;5.582;2023-04-06T04:09:52;101301.72;;;5.42;100.00
12987;BME280;58897;51.960;5.582;2023-04-06T04:12:19;101305.53;;;5.51;100.00
12987;BME280;58897;51.960;5.582;2023-04-06T04:14:46;101312.47;;;5.65;100.00
12987;BME280;58897;51.960;5.582;2023-04-06T04:17:12;101315.75;;;5.46;100.00
12987;BME280;58897;51.960;5.582;2023-04-06T04:19:39;101313.53;;;5.40;100.00
12987;BME280;58897;51.960;5.582;2023-04-06T04:22:06;101312.56;;;5.41;100.00
12987;BME280;58897;51.960;5.582;2023-04-06T04:24:33;101314.53;;;5.39;100.00
12987;BME280;58897;51.960;5.582;2023-04-06T04:27:00;101319.16;;;5.37;100.00
12987;BME280;58897;51.960;5.582;2023-04-06T04:29:29;101311.84;;;5.39;100.00
12987;BME280;58897;51.960;5.582;2023-04-06T04:31:57;101312.94;;;5.36;100.00
12987;BME280;58897;51.960;5.582;2023-04-06T04:34:25;101305.59;;;5.27;100.00
12987;BME280;58897;51.960;5.582;2023-04-06T04:36:52;101306.00;;;5.34;100.00
12987;BME280;58897;51.960;5.582;2023-04-06T04:39:18;101314.25;;;5.31;100.00
12987;BME280;58897;51.960;5.582;2023-04-06T04:41:45;101307.91;;;5.21;100.00
12987;BME280;58897;51.960;5.582;2023-04-06T04:44:11;101295.16;;;5.46;100.00
12987;BME280;58897;51.960;5.582;2023-04-06T04:46:38;101303.63;;;5.29;100.00
12987;BME280;58897;51.960;5.582;2023-04-06T04:49:05;101299.03;;;5.42;100.00
12987;BME280;58897;51.960;5.582;2023-04-06T04:51:31;101298.81;;;5.45;100.00
12987;BME280;58897;51.960;5.582;2023-04-06T04:53:58;101294.56;;;5.54;100.00
12987;BME280;58897;51.960;5.582;2023-04-06T04:56:25;101291.53;;;5.47;100.00
12987;BME280;58897;51.960;5.582;2023-04-06T04:58:53;101304.03;;;5.36;100.00
12987;BME280;58897;51.960;5.582;2023-04-06T05:01:20;101297.00;;;5.57;100.00
12987;BME280;58897;51.960;5.582;2023-04-06T05:03:47;101302.34;;;5.46;100.00
12987;BME280;58897;51.960;5.582;2023-04-06T05:06:13;101301.13;;;5.61;100.00
12987;BME280;58897;51.960;5.582;2023-04-06T05:08:41;101297.47;;;5.29;100.00
12987;BME280;58897;51.960;5.582;2023-04-06T05:11:09;101294.78;;;5.29;100.00
12987;BME280;58897;51.960;5.582;2023-04-06T05:13:35;101292.75;;;5.54;100.00
12987;BME280;58897;51.960;5.582;2023-04-06T05:16:02;101297.13;;;5.44;100.00
12987;BME280;58897;51.960;5.582;2023-04-06T05:18:28;101292.38;;;5.59;100.00
12987;BME280;58897;51.960;5.582;2023-04-06T05:20:55;101293.34;;;5.69;100.00
12987;BME280;58897;51.960;5.582;2023-04-06T05:23:21;101293.22;;;5.59;100.00
12987;BME280;58897;51.960;5.582;2023-04-06T05:25:49;101280.69;;;5.71;100.00
12987;BME280;58897;51.960;5.582;2023-04-06T05:28:15;101281.16;;;5.54;100.00
12987;BME280;58897;51.960;5.582;2023-04-06T05:30:43;101289.81;;;5.69;100.00
12987;BME280;58897;51.960;5.582;2023-04-06T05:33:10;101285.06;;;5.50;100.00
12987;BME280;58897;51.960;5.582;2023-04-06T05:35:37;101285.06;;;5.61;100.00
12987;BME280;58897;51.960;5.582;2023-04-06T05:38:07;101280.19;;;5.66;100.00
12987;BME280;58897;51.960;5.582;2023-04-06T05:40:34;101287.38;;;5.77;100.00
12987;BME280;58897;51.960;5.582;2023-04-06T05:43:00;101291.16;;;5.52;100.00
12987;BME280;58897;51.960;5.582;2023-04-06T05:45:27;101281.28;;;5.41;100.00
12987;BME280;58897;51.960;5.582;2023-04-06T05:47:53;101278.50;;;5.54;100.00
12987;BME280;58897;51.960;5.582;2023-04-06T05:50:20;101267.88;;;5.75;100.00
12987;BME280;58897;51.960;5.582;2023-04-06T05:52:46;101278.63;;;5.75;100.00
12987;BME280;58897;51.960;5.582;2023-04-06T05:55:13;101274.47;;;5.59;100.00
12987;BME280;58897;51.960;5.582;2023-04-06T05:57:40;101282.16;;;5.75;100.00
12987;BME280;58897;51.960;5.582;2023-04-06T06:00:07;101276.53;;;5.67;100.00
12987;BME280;58897;51.960;5.582;2023-04-06T06:02:37;101275.22;;;5.73;100.00
12987;BME280;58897;51.960;5.582;2023-04-06T06:05:03;101270.22;;;5.90;100.00
12987;BME280;58897;51.960;5.582;2023-04-06T06:07:30;101275.69;;;5.78;100.00
12987;BME280;58897;51.960;5.582;2023-04-06T06:09:59;101278.75;;;5.73;100.00
12987;BME280;58897;51.960;5.582;2023-04-06T06:12:26;101273.50;;;5.72;100.00
12987;BME280;58897;51.960;5.582;2023-04-06T06:14:52;101274.88;;;5.88;100.00
12987;BME280;58897;51.960;5.582;2023-04-06T06:17:19;101279.47;;;5.97;100.00
12987;BME280;58897;51.960;5.582;2023-04-06T06:19:46;101273.00;;;6.00;100.00
12987;BME280;58897;51.960;5.582;2023-04-06T06:22:12;101269.09;;;5.82;100.00
12987;BME280;58897;51.960;5.582;2023-04-06T06:24:38;101271.66;;;5.72;100.00
12987;BME280;58897;51.960;5.582;2023-04-06T06:27:05;101271.72;;;5.94;100.00
12987;BME280;58897;51.960;5.582;2023-04-06T06:29:31;101270.72;;;5.95;100.00
12987;BME280;58897;51.960;5.582;2023-04-06T06:31:58;101265.81;;;6.11;100.00
12987;BME280;58897;51.960;5.582;2023-04-06T06:34:24;101264.72;;;5.92;100.00
12987;BME280;58897;51.960;5.582;2023-04-06T06:36:51;101271.72;;;5.94;100.00
12987;BME280;58897;51.960;5.582;2023-04-06T06:39:18;101269.84;;;6.17;100.00
12987;BME280;58897;51.960;5.582;2023-04-06T06:41:44;101273.50;;;5.83;100.00
12987;BME280;58897;51.960;5.582;2023-04-06T06:44:11;101272.78;;;5.92;100.00
12987;BME280;58897;51.960;5.582;2023-04-06T06:46:37;101273.00;;;6.11;100.00
12987;BME280;58897;51.960;5.582;2023-04-06T06:49:04;101270.47;;;5.98;100.00
12987;BME280;58897;51.960;5.582;2023-04-06T06:51:30;101277.66;;;6.09;100.00
12987;BME280;58897;51.960;5.582;2023-04-06T06:53:57;101269.47;;;6.10;100.00
12987;BME280;58897;51.960;5.582;2023-04-06T06:56:23;101265.69;;;6.13;100.00
12987;BME280;58897;51.960;5.582;2023-04-06T06:58:50;101268.66;;;6.53;100.00
12987;BME280;58897;51.960;5.582;2023-04-06T07:01:16;101272.16;;;6.64;100.00
12987;BME280;58897;51.960;5.582;2023-04-06T07:03:43;101262.25;;;6.65;100.00
12987;BME280;58897;51.960;5.582;2023-04-06T07:06:09;101271.53;;;6.93;100.00
12987;BME280;58897;51.960;5.582;2023-04-06T07:08:36;101268.44;;;6.76;100.00
12987;BME280;58897;51.960;5.582;2023-04-06T07:11:02;101262.78;;;6.91;100.00
12987;BME280;58897;51.960;5.582;2023-04-06T07:13:29;101263.28;;;6.84;100.00
12987;BME280;58897;51.960;5.582;2023-04-06T07:15:56;101260.00;;;6.81;100.00
12987;BME280;58897;51.960;5.582;2023-04-06T07:18:22;101269.34;;;6.66;100.00
12987;BME280;58897;51.960;5.582;2023-04-06T07:20:49;101263.47;;;6.72;100.00
12987;BME280;58897;51.960;5.582;2023-04-06T07:23:16;101265.34;;;6.81;100.00
12987;BME280;58897;51.960;5.582;2023-04-06T07:25:42;101255.03;;;6.65;100.00
12987;BME280;58897;51.960;5.582;2023-04-06T07:28:09;101264.41;;;6.39;100.00
12987;BME280;58897;51.960;5.582;2023-04-06T07:30:37;101256.47;;;6.49;100.00
12987;BME280;58897;51.960;5.582;2023-04-06T07:33:04;101255.84;;;6.56;100.00
12987;BME280;58897;51.960;5.582;2023-04-06T07:35:32;101264.16;;;6.42;100.00
12987;BME280;58897;51.960;5.582;2023-04-06T07:37:58;101258.56;;;6.34;100.00
12987;BME280;58897;51.960;5.582;2023-04-06T07:40:25;101264.56;;;6.27;100.00
12987;BME280;58897;51.960;5.582;2023-04-06T07:42:53;101254.44;;;6.41;100.00
12987;BME280;58897;51.960;5.582;2023-04-06T07:45:23;101253.84;;;6.15;100.00
12987;BME280;58897;51.960;5.582;2023-04-06T07:47:49;101251.28;;;6.25;100.00
12987;BME280;58897;51.960;5.582;2023-04-06T07:50:16;101253.44;;;6.31;100.00
12987;BME280;58897;51.960;5.582;2023-04-06T07:52:43;101254.28;;;6.43;100.00
12987;BME280;58897;51.960;5.582;2023-04-06T07:55:09;101252.53;;;6.53;100.00
12987;BME280;58897;51.960;5.582;2023-04-06T07:57:36;101257.28;;;6.49;100.00
12987;BME280;58897;51.960;5.582;2023-04-06T08:00:04;101252.97;;;6.69;100.00
12987;BME280;58897;51.960;5.582;2023-04-06T08:02:31;101249.44;;;6.89;100.00
12987;BME280;58897;51.960;5.582;2023-04-06T08:04:58;101255.69;;;6.90;100.00
12987;BME280;58897;51.960;5.582;2023-04-06T08:07:24;101249.25;;;6.81;100.00
12987;BME280;58897;51.960;5.582;2023-04-06T08:09:51;101246.81;;;6.78;100.00
12987;BME280;58897;51.960;5.582;2023-04-06T08:12:18;101252.00;;;6.70;100.00
12987;BME280;58897;51.960;5.582;2023-04-06T08:14:44;101248.03;;;6.85;100.00
12987;BME280;58897;51.960;5.582;2023-04-06T08:17:12;101255.38;;;7.04;100.00
12987;BME280;58897;51.960;5.582;2023-04-06T08:19:38;101255.53;;;7.12;100.00
12987;BME280;58897;51.960;5.582;2023-04-06T08:22:05;101247.31;;;7.04;100.00
12987;BME280;58897;51.960;5.582;2023-04-06T08:24:31;101257.19;;;7.03;100.00
12987;BME280;58897;51.960;5.582;2023-04-06T08:26:58;101259.69;;;7.36;100.00
12987;BME280;58897;51.960;5.582;2023-04-06T08:29:25;101249.16;;;7.84;100.00
12987;BME280;58897;51.960;5.582;2023-04-06T08:31:51;101250.06;;;7.64;100.00
12987;BME280;58897;51.960;5.582;2023-04-06T08:34:20;101256.09;;;7.57;100.00
12987;BME280;58897;51.960;5.582;2023-04-06T08:36:47;101254.44;;;7.65;100.00
12987;BME280;58897;51.960;5.582;2023-04-06T08:39:13;101259.56;;;7.68;100.00
12987;BME280;58897;51.960;5.582;2023-04-06T08:41:42;101254.00;;;7.60;100.00
12987;BME280;58897;51.960;5.582;2023-04-06T08:44:11;101249.66;;;7.69;100.00
12987;BME280;58897;51.960;5.582;2023-04-06T08:46:38;101257.28;;;7.43;100.00
12987;BME280;58897;51.960;5.582;2023-04-06T08:49:04;101258.03;;;7.75;100.00
12987;BME280;58897;51.960;5.582;2023-04-06T08:51:36;101252.44;;;7.58;100.00
12987;BME280;58897;51.960;5.582;2023-04-06T08:54:04;101244.91;;;7.82;100.00
12987;BME280;58897;51.960;5.582;2023-04-06T08:56:31;101255.06;;;7.78;100.00
12987;BME280;58897;51.960;5.582;2023-04-06T08:58:58;101239.19;;;8.05;100.00
12987;BME280;58897;51.960;5.582;2023-04-06T09:01:28;101239.47;;;8.22;100.00
12987;BME280;58897;51.960;5.582;2023-04-06T09:03:59;101245.44;;;8.16;100.00
12987;BME280;58897;51.960;5.582;2023-04-06T09:06:28;101247.72;;;8.20;100.00
12987;BME280;58897;51.960;5.582;2023-04-06T09:08:55;101248.59;;;8.30;100.00
12987;BME280;58897;51.960;5.582;2023-04-06T09:11:21;101253.28;;;8.47;100.00
12987;BME280;58897;51.960;5.582;2023-04-06T09:13:54;101255.75;;;8.60;100.00
12987;BME280;58897;51.960;5.582;2023-04-06T09:16:21;101244.25;;;8.48;100.00
12987;BME280;58897;51.960;5.582;2023-04-06T09:18:49;101238.59;;;8.71;100.00
12987;BME280;58897;51.960;5.582;2023-04-06T09:21:17;101248.91;;;8.94;100.00
12987;BME280;58897;51.960;5.582;2023-04-06T09:23:46;101245.53;;;8.54;100.00
12987;BME280;58897;51.960;5.582;2023-04-06T09:26:16;101238.72;;;8.59;100.00
12987;BME280;58897;51.960;5.582;2023-04-06T09:28:53;101242.97;;;8.62;100.00
12987;BME280;58897;51.960;5.582;2023-04-06T09:31:25;101245.38;;;8.75;100.00
12987;BME280;58897;51.960;5.582;2023-04-06T09:33:52;101236.47;;;8.84;100.00
12987;BME280;58897;51.960;5.582;2023-04-06T09:36:20;101239.56;;;8.98;100.00
12987;BME280;58897;51.960;5.582;2023-04-06T09:38:54;101241.56;;;8.77;100.00
12987;BME280;58897;51.960;5.582;2023-04-06T09:41:35;101240.16;;;8.83;100.00
12987;BME280;58897;51.960;5.582;2023-04-06T09:44:05;101238.56;;;8.90;100.00
12987;BME280;58897;51.960;5.582;2023-04-06T09:46:35;101243.53;;;9.04;100.00
12987;BME280;58897;51.960;5.582;2023-04-06T09:49:21;101241.41;;;8.98;100.00
12987;BME280;58897;51.960;5.582;2023-04-06T09:51:54;101249.50;;;8.98;100.00
12987;BME280;58897;51.960;5.582;2023-04-06T09:54:22;101246.22;;;8.94;100.00
12987;BME280;58897;51.960;5.582;2023-04-06T10:00:05;101249.19;;;9.10;100.00
12987;BME280;58897;51.960;5.582;2023-04-06T10:03:06;101238.69;;;9.17;100.00
12987;BME280;58897;51.960;5.582;2023-04-06T10:05:43;101235.59;;;9.12;100.00
12987;BME280;58897;51.960;5.582;2023-04-06T10:08:13;101241.13;;;9.01;100.00
12987;BME280;58897;51.960;5.582;2023-04-06T10:10:41;101248.78;;;9.15;100.00
12987;BME280;58897;51.960;5.582;2023-04-06T10:13:10;101245.06;;;9.16;100.00
12987;BME280;58897;51.960;5.582;2023-04-06T10:15:37;101239.81;;;9.24;100.00
12987;BME280;58897;51.960;5.582;2023-04-06T10:18:04;101244.97;;;9.64;100.00
12987;BME280;58897;51.960;5.582;2023-04-06T10:20:39;101250.13;;;9.48;100.00
12987;BME280;58897;51.960;5.582;2023-04-06T10:25:54;101247.56;;;9.46;100.00
12987;BME280;58897;51.960;5.582;2023-04-06T10:28:21;101247.09;;;9.60;100.00
12987;BME280;58897;51.960;5.582;2023-04-06T10:30:48;101246.75;;;9.73;100.00
12987;BME280;58897;51.960;5.582;2023-04-06T10:33:19;101251.69;;;9.87;100.00
12987;BME280;58897;51.960;5.582;2023-04-06T10:35:46;101242.88;;;9.85;100.00
12987;BME280;58897;51.960;5.582;2023-04-06T10:38:13;101245.13;;;9.53;100.00
12987;BME280;58897;51.960;5.582;2023-04-06T10:40:42;101241.25;;;9.65;100.00
12987;BME280;58897;51.960;5.582;2023-04-06T10:43:21;101238.53;;;9.28;100.00
12987;BME280;58897;51.960;5.582;2023-04-06T10:45:55;101249.13;;;9.39;100.00
12987;BME280;58897;51.960;5.582;2023-04-06T10:48:23;101235.00;;;9.27;100.00
12987;BME280;58897;51.960;5.582;2023-04-06T10:50:52;101239.72;;;9.06;100.00
12987;BME280;58897;51.960;5.582;2023-04-06T10:53:25;101246.09;;;8.96;100.00
12987;BME280;58897;51.960;5.582;2023-04-06T10:55:54;101254.03;;;8.88;100.00
12987;BME280;58897;51.960;5.582;2023-04-06T10:58:25;101247.09;;;8.95;100.00
12987;BME280;58897;51.960;5.582;2023-04-06T11:00:53;101248.50;;;8.80;100.00
12987;BME280;58897;51.960;5.582;2023-04-06T11:03:20;101256.59;;;8.80;100.00
12987;BME280;58897;51.960;5.582;2023-04-06T11:05:48;101251.63;;;8.75;100.00
12987;BME280;58897;51.960;5.582;2023-04-06T11:08:31;101252.78;;;8.73;100.00
12987;BME280;58897;51.960;5.582;2023-04-06T11:11:08;101252.47;;;8.66;100.00
12987;BME280;58897;51.960;5.582;2023-04-06T11:13:42;101254.19;;;8.57;100.00
12987;BME280;58897;51.960;5.582;2023-04-06T11:16:17;101250.38;;;8.60;100.00
12987;BME280;58897;51.960;5.582;2023-04-06T11:21:32;101248.53;;;8.70;100.00
12987;BME280;58897;51.960;5.582;2023-04-06T11:24:15;101254.59;;;8.53;100.00
12987;BME280;58897;51.960;5.582;2023-04-06T11:26:50;101246.94;;;8.48;100.00
12987;BME280;58897;51.960;5.582;2023-04-06T11:29:19;101249.03;;;8.45;100.00
12987;BME280;58897;51.960;5.582;2023-04-06T11:31:48;101241.41;;;8.69;100.00
12987;BME280;58897;51.960;5.582;2023-04-06T11:34:19;101242.13;;;8.61;100.00
12987;BME280;58897;51.960;5.582;2023-04-06T11:36:47;101235.03;;;8.80;100.00
12987;BME280;58897;51.960;5.582;2023-04-06T11:39:20;101238.72;;;8.79;100.00
12987;BME280;58897;51.960;5.582;2023-04-06T11:41:50;101239.44;;;8.52;100.00
12987;BME280;58897;51.960;5.582;2023-04-06T11:44:32;101237.88;;;8.49;100.00
12987;BME280;58897;51.960;5.582;2023-04-06T11:47:04;101232.69;;;8.18;100.00
12987;BME280;58897;51.960;5.582;2023-04-06T11:49:31;101235.22;;;8.09;100.00
12987;BME280;58897;51.960;5.582;2023-04-06T11:51:59;101224.19;;;8.22;100.00
12987;BME280;58897;51.960;5.582;2023-04-06T11:54:55;101237.03;;;7.99;100.00
12987;BME280;58897;51.960;5.582;2023-04-06T11:57:25;101227.56;;;8.05;100.00
12987;BME280;58897;51.960;5.582;2023-04-06T11:59:52;101234.72;;;7.85;100.00
12987;BME280;58897;51.960;5.582;2023-04-06T12:02:19;101226.16;;;7.61;100.00
12987;BME280;58897;51.960;5.582;2023-04-06T12:04:45;101234.25;;;7.71;100.00
12987;BME280;58897;51.960;5.582;2023-04-06T12:07:13;101230.69;;;7.70;100.00
12987;BME280;58897;51.960;5.582;2023-04-06T12:09:41;101222.38;;;7.83;100.00
12987;BME280;58897;51.960;5.582;2023-04-06T12:12:07;101226.63;;;7.85;100.00
12987;BME280;58897;51.960;5.582;2023-04-06T12:14:34;101212.91;;;7.88;100.00
12987;BME280;58897;51.960;5.582;2023-04-06T12:17:00;101218.44;;;7.87;100.00
12987;BME280;58897;51.960;5.582;2023-04-06T12:19:27;101218.47;;;7.96;100.00
12987;BME280;58897;51.960;5.582;2023-04-06T12:21:56;101221.66;;;7.71;100.00
12987;BME280;58897;51.960;5.582;2023-04-06T12:24:23;101223.75;;;7.68;100.00
12987;BME280;58897;51.960;5.582;2023-04-06T12:26:50;101211.22;;;7.87;100.00
12987;BME280;58897;51.960;5.582;2023-04-06T12:29:28;101216.88;;;7.84;100.00
12987;BME280;58897;51.960;5.582;2023-04-06T12:31:54;101208.09;;;7.82;100.00
12987;BME280;58897;51.960;5.582;2023-04-06T12:34:25;101214.47;;;7.81;100.00
12987;BME280;58897;51.960;5.582;2023-04-06T12:36:51;101197.91;;;7.86;100.00
12987;BME280;58897;51.960;5.582;2023-04-06T12:39:18;101207.44;;;7.90;100.00
12987;BME280;58897;51.960;5.582;2023-04-06T12:41:47;101196.78;;;7.88;100.00
12987;BME280;58897;51.960;5.582;2023-04-06T12:44:13;101213.47;;;7.82;100.00
12987;BME280;58897;51.960;5.582;2023-04-06T12:46:40;101212.56;;;7.72;100.00
12987;BME280;58897;51.960;5.582;2023-04-06T12:49:06;101199.56;;;7.77;100.00
12987;BME280;58897;51.960;5.582;2023-04-06T12:51:33;101193.25;;;7.88;100.00
12987;BME280;58897;51.960;5.582;2023-04-06T12:53:59;101197.66;;;7.89;100.00
12987;BME280;58897;51.960;5.582;2023-04-06T12:56:27;101201.13;;;7.80;100.00
12987;BME280;58897;51.960;5.582;2023-04-06T12:58:55;101202.50;;;7.65;100.00
12987;BME280;58897;51.960;5.582;2023-04-06T13:01:21;101187.47;;;7.92;100.00
12987;BME280;58897;51.960;5.582;2023-04-06T13:03:49;101209.50;;;7.77;100.00